Time;durP1;ratioP1;P1;durP2;ratioP2;P2;SDS_P1;SDS_P2;PMS_P1;PMS_P2;Temp;Humidity;BMP_temperature;BMP_pressure;BME280_temperature;BME280_humidity;BME280_pressure;Samples;Min_cycle;Max_cycle;Signal;HPM_P1;HPM_P2
2023/04/13 00:00:09;;;;;;;24.05;22.25;;;;;;;;;;5017064;28;20232;-83
2023/04/13 00:02:40;;;;;;;23.10;21.35;;;;;;;;;;5017495;28;20197;-84
2023/04/13 00:05:08;;;;;;;22.95;21.15;;;;;;;;;;5017083;28;20755;-84
2023/04/13 00:07:37;;;;;;;22.63;20.55;;;;;;;;;;5015917;28;20219;-83
2023/04/13 00:10:04;;;;;;;20.85;19.55;;;;;;;;;;5016792;28;20808;-83
2023/04/13 00:12:32;;;;;;;21.67;20.17;;;;;;;;;;5016873;28;20206;-83
2023/04/13 00:14:59;;;;;;;21.65;20.17;;;;;;;;;;5017205;28;20218;-84
2023/04/13 00:17:26;;;;;;;20.30;19.00;;;;;;;;;;5015551;28;20202;-82
2023/04/13 00:19:56;;;;;;;19.85;18.85;;;;;;;;;;5015571;28;20613;-84
2023/04/13 00:22:24;;;;;;;20.15;18.95;;;;;;;;;;5016274;28;20657;-84
2023/04/13 00:24:53;;;;;;;20.25;19.15;;;;;;;;;;5016842;28;20214;-84
2023/04/13 00:27:20;;;;;;;20.52;19.08;;;;;;;;;;5016186;28;20244;-84
2023/04/13 00:29:47;;;;;;;19.98;18.75;;;;;;;;;;5015968;28;20230;-84
2023/04/13 00:32:14;;;;;;;19.38;18.38;;;;;;;;;;5016799;28;20202;-84
2023/04/13 00:34:41;;;;;;;19.58;18.52;;;;;;;;;;5016407;28;20205;-83
2023/04/13 00:37:10;;;;;;;19.42;18.42;;;;;;;;;;5015658;28;20202;-83
2023/04/13 00:39:37;;;;;;;19.33;18.40;;;;;;;;;;5016048;28;20225;-84
2023/04/13 00:42:07;;;;;;;19.25;18.25;;;;;;;;;;5016401;28;20813;-84
2023/04/13 00:44:34;;;;;;;19.00;18.00;;;;;;;;;;5016663;28;20231;-84
2023/04/13 00:47:01;;;;;;;19.83;18.73;;;;;;;;;;5016458;28;20488;-84
2023/04/13 00:49:29;;;;;;;18.60;17.70;;;;;;;;;;5016685;28;20851;-85
2023/04/13 00:51:56;;;;;;;18.50;17.57;;;;;;;;;;5016558;28;20439;-84
2023/04/13 00:54:25;;;;;;;19.58;18.48;;;;;;;;;;5016451;28;20448;-84
2023/04/13 00:56:53;;;;;;;19.00;18.00;;;;;;;;;;5016907;28;20202;-83
2023/04/13 00:59:20;;;;;;;18.63;17.73;;;;;;;;;;5016290;28;20594;-83
2023/04/13 01:01:49;;;;;;;17.88;17.00;;;;;;;;;;5015854;28;20205;-84
2023/04/13 01:04:18;;;;;;;17.88;17.08;;;;;;;;;;5016152;28;20291;-83
2023/04/13 01:06:48;;;;;;;18.63;17.73;;;;;;;;;;5015761;28;20232;-84
2023/04/13 01:09:17;;;;;;;19.03;17.97;;;;;;;;;;5016307;28;20567;-84
2023/04/13 01:11:49;;;;;;;19.43;18.17;;;;;;;;;;5018276;28;20964;-83
2023/04/13 01:14:19;;;;;;;18.53;17.63;;;;;;;;;;5017893;28;20439;-83
2023/04/13 01:16:51;;;;;;;19.17;18.13;;;;;;;;;;5017466;28;20487;-84
2023/04/13 01:19:23;;;;;;;18.30;17.40;;;;;;;;;;5017137;28;20229;-83
2023/04/13 01:21:53;;;;;;;18.80;17.80;;;;;;;;;;5016849;28;20210;-83
2023/04/13 01:24:25;;;;;;;18.40;17.30;;;;;;;;;;5017431;28;20640;-84
2023/04/13 01:26:57;;;;;;;18.08;17.17;;;;;;;;;;5016267;28;20232;-84
2023/04/13 01:29:25;;;;;;;18.60;17.60;;;;;;;;;;5016808;28;20229;-83
2023/04/13 01:31:53;;;;;;;17.50;16.70;;;;;;;;;;5017027;28;20229;-83
2023/04/13 01:34:20;;;;;;;19.38;18.27;;;;;;;;;;5016708;28;20209;-84
2023/04/13 01:36:47;;;;;;;19.27;18.25;;;;;;;;;;5015812;28;20263;-82
2023/04/13 01:39:19;;;;;;;20.27;19.00;;;;;;;;;;5016813;28;20276;-83
2023/04/13 01:41:46;;;;;;;19.45;18.33;;;;;;;;;;5016413;28;20301;-84
2023/04/13 01:44:13;;;;;;;19.23;18.13;;;;;;;;;;5016521;28;20204;-83
2023/04/13 01:46:45;;;;;;;18.88;17.98;;;;;;;;;;5016230;28;20213;-83
2023/04/13 01:49:12;;;;;;;18.48;17.48;;;;;;;;;;5016285;28;20234;-82
2023/04/13 01:51:40;;;;;;;18.67;17.58;;;;;;;;;;5015628;28;20287;-83
2023/04/13 01:54:10;;;;;;;18.80;17.90;;;;;;;;;;5015809;28;20245;-84
2023/04/13 01:56:37;;;;;;;18.40;17.50;;;;;;;;;;5015677;28;20239;-82
2023/04/13 01:59:05;;;;;;;18.15;17.25;;;;;;;;;;5015653;28;20772;-84
2023/04/13 02:01:32;;;;;;;18.30;17.40;;;;;;;;;;5015718;28;20574;-83
2023/04/13 02:04:01;;;;;;;17.85;16.95;;;;;;;;;;5016039;28;20194;-83
2023/04/13 02:06:28;;;;;;;18.15;17.25;;;;;;;;;;5015227;28;20216;-84
2023/04/13 02:08:55;;;;;;;17.55;16.75;;;;;;;;;;5016065;28;20284;-83
2023/04/13 02:11:22;;;;;;;17.40;16.60;;;;;;;;;;5015698;28;20197;-83
2023/04/13 02:13:49;;;;;;;17.80;16.70;;;;;;;;;;5015148;28;20213;-83
2023/04/13 02:16:16;;;;;;;18.20;17.30;;;;;;;;;;5014882;28;20205;-84
2023/04/13 02:18:43;;;;;;;17.87;16.87;;;;;;;;;;5014814;28;20469;-83
2023/04/13 02:21:12;;;;;;;17.65;16.85;;;;;;;;;;5014646;28;20431;-84
2023/04/13 02:23:40;;;;;;;17.77;16.88;;;;;;;;;;5014900;28;20625;-84
2023/04/13 02:26:08;;;;;;;18.23;17.03;;;;;;;;;;5014819;28;20216;-83
2023/04/13 02:28:35;;;;;;;18.63;17.52;;;;;;;;;;5017797;28;20996;-83
2023/04/13 02:31:04;;;;;;;17.27;16.47;;;;;;;;;;5013459;28;20213;-84
2023/04/13 02:33:31;;;;;;;17.90;16.80;;;;;;;;;;5012963;28;20508;-83
2023/04/13 02:35:58;;;;;;;18.15;17.35;;;;;;;;;;5013077;28;20670;-83
2023/04/13 02:38:27;;;;;;;18.00;16.90;;;;;;;;;;5013419;28;20271;-83
2023/04/13 02:40:55;;;;;;;17.75;16.95;;;;;;;;;;5014663;28;20220;-83
2023/04/13 02:43:22;;;;;;;17.52;16.58;;;;;;;;;;5017094;28;20245;-83
2023/04/13 02:45:49;;;;;;;17.83;17.02;;;;;;;;;;5017060;28;20681;-83
2023/04/13 02:48:17;;;;;;;17.70;16.80;;;;;;;;;;5019168;28;20255;-84
2023/04/13 02:50:44;;;;;;;17.60;16.80;;;;;;;;;;5017695;28;20452;-84
2023/04/13 02:53:11;;;;;;;17.80;16.85;;;;;;;;;;5017176;28;20442;-83
2023/04/13 02:55:39;;;;;;;17.08;16.27;;;;;;;;;;5017616;28;20209;-83
2023/04/13 02:58:06;;;;;;;17.23;16.43;;;;;;;;;;5017426;28;20655;-84
2023/04/13 03:00:33;;;;;;;17.50;16.70;;;;;;;;;;5017824;28;20459;-84
2023/04/13 03:03:02;;;;;;;17.20;16.40;;;;;;;;;;5017513;28;20450;-84
2023/04/13 03:05:30;;;;;;;16.30;15.60;;;;;;;;;;5017924;28;20771;-84
2023/04/13 03:07:58;;;;;;;17.37;16.50;;;;;;;;;;5017597;28;20256;-84
2023/04/13 03:10:25;;;;;;;17.40;16.50;;;;;;;;;;5017703;28;20448;-84
2023/04/13 03:12:53;;;;;;;18.60;17.70;;;;;;;;;;5017534;28;20423;-84
2023/04/13 03:15:21;;;;;;;17.30;16.40;;;;;;;;;;5017896;28;20220;-84
2023/04/13 03:17:48;;;;;;;17.03;16.17;;;;;;;;;;5017486;28;20206;-84
2023/04/13 03:20:15;;;;;;;18.40;17.50;;;;;;;;;;5017297;28;21025;-84
2023/04/13 03:22:42;;;;;;;18.43;17.30;;;;;;;;;;5017748;28;20311;-84
2023/04/13 03:25:09;;;;;;;17.43;16.53;;;;;;;;;;5016984;28;20447;-84
2023/04/13 03:27:36;;;;;;;17.08;16.33;;;;;;;;;;5017451;28;20452;-83
2023/04/13 03:30:05;;;;;;;17.35;16.50;;;;;;;;;;5018030;28;20229;-84
2023/04/13 03:32:32;;;;;;;17.97;17.00;;;;;;;;;;5017652;28;20263;-84
2023/04/13 03:34:59;;;;;;;17.90;16.70;;;;;;;;;;5017042;28;20472;-83
2023/04/13 03:37:28;;;;;;;17.70;16.90;;;;;;;;;;5016635;28;20526;-84
2023/04/13 03:39:55;;;;;;;17.50;16.67;;;;;;;;;;5017550;28;20462;-84
2023/04/13 03:42:22;;;;;;;17.65;16.75;;;;;;;;;;5017869;28;20462;-84
2023/04/13 03:44:49;;;;;;;17.75;16.75;;;;;;;;;;5017214;28;20657;-83
2023/04/13 03:47:18;;;;;;;17.10;16.30;;;;;;;;;;5016941;28;20620;-82
2023/04/13 03:49:45;;;;;;;17.60;16.80;;;;;;;;;;5017282;28;20546;-84
2023/04/13 03:52:12;;;;;;;17.73;16.83;;;;;;;;;;5015508;28;20241;-83
2023/04/13 03:54:39;;;;;;;17.10;16.30;;;;;;;;;;5016687;28;20560;-84
2023/04/13 03:57:06;;;;;;;17.33;16.53;;;;;;;;;;5016768;28;20460;-82
2023/04/13 03:59:33;;;;;;;17.80;16.87;;;;;;;;;;5016837;28;20476;-84
2023/04/13 04:02:02;;;;;;;17.50;16.70;;;;;;;;;;5016982;28;20486;-83
2023/04/13 04:04:30;;;;;;;17.48;16.67;;;;;;;;;;5016278;28;20240;-84
2023/04/13 04:06:58;;;;;;;17.67;16.87;;;;;;;;;;5017064;28;20276;-84
2023/04/13 04:09:25;;;;;;;18.10;17.27;;;;;;;;;;5017657;28;20487;-83
2023/04/13 04:11:52;;;;;;;18.53;17.60;;;;;;;;;;5017660;28;20458;-83
2023/04/13 04:14:19;;;;;;;19.33;18.03;;;;;;;;;;5016984;28;20441;-82
2023/04/13 04:16:46;;;;;;;20.67;19.20;;;;;;;;;;5016748;28;20444;-83
2023/04/13 04:19:13;;;;;;;17.90;17.10;;;;;;;;;;5017152;28;20559;-82
2023/04/13 04:21:45;;;;;;;18.70;17.70;;;;;;;;;;5017243;28;20423;-81
2023/04/13 04:24:21;;;;;;;18.80;17.80;;;;;;;;;;5016971;28;20770;-83
2023/04/13 04:26:49;;;;;;;18.90;17.80;;;;;;;;;;5016773;28;20485;-83
2023/04/13 04:29:16;;;;;;;18.90;17.80;;;;;;;;;;5016750;28;20506;-83
2023/04/13 04:31:44;;;;;;;18.23;17.27;;;;;;;;;;5016930;28;20415;-82
2023/04/13 04:34:12;;;;;;;19.10;17.90;;;;;;;;;;5016838;28;20418;-83
2023/04/13 04:36:40;;;;;;;18.93;17.93;;;;;;;;;;5015698;28;20477;-82
2023/04/13 04:39:09;;;;;;;18.90;17.80;;;;;;;;;;5017959;28;20447;-79
2023/04/13 04:41:38;;;;;;;18.00;17.10;;;;;;;;;;5017327;28;20926;-79
2023/04/13 04:44:07;;;;;;;19.10;17.90;;;;;;;;;;5017597;28;20961;-80
2023/04/13 04:46:37;;;;;;;18.50;17.50;;;;;;;;;;5016160;28;20559;-79
2023/04/13 04:49:04;;;;;;;18.10;17.20;;;;;;;;;;5017719;28;20535;-79
2023/04/13 04:51:32;;;;;;;18.77;17.87;;;;;;;;;;5017177;28;20449;-79
2023/04/13 04:54:01;;;;;;;17.73;16.83;;;;;;;;;;5017370;28;20502;-79
2023/04/13 04:56:29;;;;;;;18.27;17.37;;;;;;;;;;5016046;28;20468;-80
2023/04/13 04:58:57;;;;;;;17.80;17.00;;;;;;;;;;5017563;28;20443;-79
2023/04/13 05:01:25;;;;;;;19.07;18.07;;;;;;;;;;5017335;28;20451;-79
2023/04/13 05:03:52;;;;;;;17.97;17.07;;;;;;;;;;5016948;28;20435;-79
2023/04/13 05:06:19;;;;;;;18.17;17.17;;;;;;;;;;5016965;28;20506;-81
2023/04/13 05:08:46;;;;;;;18.00;17.10;;;;;;;;;;5017684;28;21043;-79
2023/04/13 05:11:13;;;;;;;18.50;17.60;;;;;;;;;;5018263;28;20490;-79
2023/04/13 05:13:42;;;;;;;18.00;17.00;;;;;;;;;;5017864;28;20206;-79
2023/04/13 05:16:09;;;;;;;18.50;17.20;;;;;;;;;;5017660;28;20479;-79
2023/04/13 05:18:44;;;;;;;18.53;17.23;;;;;;;;;;5017447;28;20463;-78
2023/04/13 05:21:11;;;;;;;18.17;17.27;;;;;;;;;;5018530;28;20436;-79
2023/04/13 05:23:38;;;;;;;17.57;16.77;;;;;;;;;;5016029;28;20450;-79
2023/04/13 05:26:05;;;;;;;16.70;16.00;;;;;;;;;;5016629;28;20449;-79
2023/04/13 05:28:34;;;;;;;17.47;16.67;;;;;;;;;;5016202;28;20463;-80
2023/04/13 05:31:03;;;;;;;17.90;17.00;;;;;;;;;;5016251;28;20456;-78
2023/04/13 05:33:30;;;;;;;17.53;16.63;;;;;;;;;;5017333;28;20657;-79
2023/04/13 05:35:57;;;;;;;17.13;16.33;;;;;;;;;;5016403;28;20477;-79
2023/04/13 05:38:24;;;;;;;16.90;16.20;;;;;;;;;;5016579;28;20533;-79
2023/04/13 05:40:52;;;;;;;17.30;16.47;;;;;;;;;;5017247;28;20448;-78
2023/04/13 05:43:19;;;;;;;18.13;17.13;;;;;;;;;;5015402;28;20510;-79
2023/04/13 05:45:46;;;;;;;17.60;16.80;;;;;;;;;;5015742;28;20213;-79
2023/04/13 05:48:15;;;;;;;17.23;16.42;;;;;;;;;;5015064;28;20484;-78
2023/04/13 05:50:42;;;;;;;18.08;17.17;;;;;;;;;;5016010;28;20350;-79
2023/04/13 05:53:09;;;;;;;18.50;17.23;;;;;;;;;;5016406;28;20215;-79
2023/04/13 05:55:36;;;;;;;19.30;17.90;;;;;;;;;;5015766;28;20431;-87
2023/04/13 05:58:03;;;;;;;18.90;17.50;;;;;;;;;;5020827;28;20442;-81
2023/04/13 06:00:31;;;;;;;17.10;16.00;;;;;;;;;;5020675;28;20400;-81
2023/04/13 06:03:00;;;;;;;17.00;16.10;;;;;;;;;;5019823;28;20462;-81
2023/04/13 06:05:28;;;;;;;19.37;17.93;;;;;;;;;;5016208;28;20457;-79
2023/04/13 06:07:56;;;;;;;19.77;17.93;;;;;;;;;;5017169;28;20437;-80
2023/04/13 06:10:23;;;;;;;18.80;17.40;;;;;;;;;;5016621;28;20539;-80
2023/04/13 06:12:51;;;;;;;18.23;17.23;;;;;;;;;;5017941;28;20482;-80
2023/04/13 06:15:19;;;;;;;19.00;17.27;;;;;;;;;;5017046;28;20513;-79
2023/04/13 06:17:46;;;;;;;18.30;17.30;;;;;;;;;;5016963;28;20483;-80
2023/04/13 06:20:14;;;;;;;18.10;17.10;;;;;;;;;;5016316;28;20913;-80
2023/04/13 06:22:42;;;;;;;17.83;16.73;;;;;;;;;;5019397;28;20460;-79
2023/04/13 06:25:10;;;;;;;18.33;17.33;;;;;;;;;;5037920;28;20847;-80
2023/04/13 06:27:37;;;;;;;18.27;17.27;;;;;;;;;;5039923;28;20461;-80
2023/04/13 06:30:05;;;;;;;17.60;16.70;;;;;;;;;;5039483;28;20897;-80
2023/04/13 06:32:32;;;;;;;18.60;17.37;;;;;;;;;;5039791;28;20456;-80
2023/04/13 06:34:59;;;;;;;18.53;17.27;;;;;;;;;;5040373;28;20903;-80
2023/04/13 06:37:27;;;;;;;18.30;17.30;;;;;;;;;;5039300;28;20418;-80
2023/04/13 06:39:56;;;;;;;18.27;17.17;;;;;;;;;;5039473;28;20465;-80
2023/04/13 06:42:23;;;;;;;18.27;17.27;;;;;;;;;;5039990;28;20455;-79
2023/04/13 06:44:50;;;;;;;18.30;17.10;;;;;;;;;;5040239;28;20443;-80
2023/04/13 06:47:17;;;;;;;20.03;18.00;;;;;;;;;;5039106;28;20451;-80
2023/04/13 06:49:44;;;;;;;18.60;17.60;;;;;;;;;;5038764;28;20465;-80
2023/04/13 06:52:12;;;;;;;19.40;18.20;;;;;;;;;;5039267;28;20410;-79
2023/04/13 06:54:39;;;;;;;18.73;17.73;;;;;;;;;;5039060;28;20417;-79
2023/04/13 06:57:08;;;;;;;18.00;16.90;;;;;;;;;;5039696;28;20457;-79
2023/04/13 06:59:34;;;;;;;20.17;18.90;;;;;;;;;;5037947;28;20442;-80
2023/04/13 07:02:01;;;;;;;18.83;17.63;;;;;;;;;;5038624;28;20430;-78
2023/04/13 07:04:29;;;;;;;17.67;16.77;;;;;;;;;;5038168;28;20464;-80
2023/04/13 07:06:56;;;;;;;17.77;16.87;;;;;;;;;;5037655;28;20422;-80
2023/04/13 07:09:23;;;;;;;19.77;18.33;;;;;;;;;;5037642;28;20465;-79
2023/04/13 07:11:50;;;;;;;17.93;16.93;;;;;;;;;;5036913;28;20976;-79
2023/04/13 07:14:18;;;;;;;18.57;17.60;;;;;;;;;;5037766;28;20459;-79
2023/04/13 07:16:45;;;;;;;18.30;17.30;;;;;;;;;;5036980;28;20426;-80
2023/04/13 07:19:12;;;;;;;19.50;18.20;;;;;;;;;;5036939;28;20447;-79
2023/04/13 07:21:40;;;;;;;18.30;17.30;;;;;;;;;;5036922;28;20501;-82
2023/04/13 07:24:07;;;;;;;18.40;17.40;;;;;;;;;;5036889;28;20459;-80
2023/04/13 07:26:34;;;;;;;20.67;18.83;;;;;;;;;;5036456;28;20430;-79
2023/04/13 07:29:01;;;;;;;18.60;17.57;;;;;;;;;;5040132;28;20492;-78
2023/04/13 07:31:30;;;;;;;18.60;17.30;;;;;;;;;;5040066;28;20460;-80
2023/04/13 07:33:57;;;;;;;18.23;17.33;;;;;;;;;;5040266;28;20485;-80
2023/04/13 07:36:24;;;;;;;18.27;17.27;;;;;;;;;;5038533;28;20980;-81
2023/04/13 07:38:51;;;;;;;20.17;18.97;;;;;;;;;;5039869;28;20472;-81
2023/04/13 07:41:21;;;;;;;17.97;17.10;;;;;;;;;;5040595;28;20418;-79
2023/04/13 07:43:48;;;;;;;18.50;17.40;;;;;;;;;;5039779;28;20445;-80
2023/04/13 07:46:15;;;;;;;18.97;17.87;;;;;;;;;;5039335;28;20451;-80
2023/04/13 07:48:43;;;;;;;18.20;17.30;;;;;;;;;;5039884;28;20477;-81
2023/04/13 07:51:16;;;;;;;18.53;17.63;;;;;;;;;;5042007;28;20456;-80
2023/04/13 07:53:43;;;;;;;18.73;17.83;;;;;;;;;;5041555;28;20517;-80
2023/04/13 07:56:11;;;;;;;18.63;17.63;;;;;;;;;;5040447;28;20459;-81
2023/04/13 07:58:37;;;;;;;17.70;16.80;;;;;;;;;;5040725;28;20487;-80
2023/04/13 08:01:05;;;;;;;18.90;17.80;;;;;;;;;;5040286;28;20447;-81
2023/04/13 08:03:32;;;;;;;18.20;17.33;;;;;;;;;;5041180;28;20455;-80
2023/04/13 08:06:01;;;;;;;19.53;18.53;;;;;;;;;;5040287;28;20464;-81
2023/04/13 08:08:28;;;;;;;20.97;19.80;;;;;;;;;;5040053;28;20493;-81
2023/04/13 08:10:56;;;;;;;19.63;18.63;;;;;;;;;;5040274;28;20450;-80
2023/04/13 08:13:23;;;;;;;19.37;18.27;;;;;;;;;;5040612;28;20426;-80
2023/04/13 08:15:50;;;;;;;20.10;19.07;;;;;;;;;;5039714;28;20509;-80
2023/04/13 08:18:17;;;;;;;20.20;19.10;;;;;;;;;;5040921;28;20474;-80
2023/04/13 08:20:44;;;;;;;20.80;19.70;;;;;;;;;;5040735;28;20832;-80
2023/04/13 08:23:13;;;;;;;20.50;19.40;;;;;;;;;;5040817;28;20414;-81
2023/04/13 08:25:41;;;;;;;21.53;20.03;;;;;;;;;;5039559;28;20429;-81
2023/04/13 08:28:08;;;;;;;21.20;19.87;;;;;;;;;;5039860;28;20801;-80
2023/04/13 08:30:35;;;;;;;20.73;19.63;;;;;;;;;;5038771;28;20469;-79
2023/04/13 08:33:03;;;;;;;20.83;19.53;;;;;;;;;;5035167;28;20427;-80
2023/04/13 08:35:30;;;;;;;20.50;19.40;;;;;;;;;;5035094;28;20478;-80
2023/04/13 08:37:57;;;;;;;19.87;18.87;;;;;;;;;;5034880;28;20924;-80
2023/04/13 08:40:26;;;;;;;21.63;20.40;;;;;;;;;;5034813;28;20464;-80
2023/04/13 08:42:55;;;;;;;20.40;19.30;;;;;;;;;;5036406;28;20920;-80
2023/04/13 08:45:22;;;;;;;21.20;20.10;;;;;;;;;;5035720;28;20414;-79
2023/04/13 08:47:49;;;;;;;20.63;19.53;;;;;;;;;;5035421;28;20894;-80
2023/04/13 08:50:17;;;;;;;21.27;20.10;;;;;;;;;;5035871;28;20474;-81
2023/04/13 08:52:44;;;;;;;20.77;19.47;;;;;;;;;;5036627;28;20441;-80
2023/04/13 08:55:11;;;;;;;22.77;21.13;;;;;;;;;;5037887;28;20466;-80
2023/04/13 08:57:40;;;;;;;21.57;20.40;;;;;;;;;;5037029;28;20805;-81
2023/04/13 09:00:11;;;;;;;20.23;19.13;;;;;;;;;;5036249;28;20473;-80
2023/04/13 09:02:39;;;;;;;20.90;19.67;;;;;;;;;;5036512;28;20441;-81
2023/04/13 09:05:14;;;;;;;20.53;19.53;;;;;;;;;;5038078;28;20471;-80
2023/04/13 09:07:42;;;;;;;23.27;22.00;;;;;;;;;;5041289;28;20553;-81
2023/04/13 09:10:10;;;;;;;19.70;18.70;;;;;;;;;;5046419;28;20798;-80
2023/04/13 09:12:37;;;;;;;20.80;19.80;;;;;;;;;;5040503;28;20446;-80
2023/04/13 09:15:07;;;;;;;21.20;20.00;;;;;;;;;;5042490;28;20478;-80
2023/04/13 09:17:35;;;;;;;20.93;19.93;;;;;;;;;;5040847;28;20446;-80
2023/04/13 09:20:12;;;;;;;21.07;19.87;;;;;;;;;;5040444;28;20472;-79
2023/04/13 09:22:39;;;;;;;21.60;20.40;;;;;;;;;;5038136;28;20484;-81
2023/04/13 09:25:06;;;;;;;21.07;19.97;;;;;;;;;;5045056;28;20422;-80
2023/04/13 09:27:35;;;;;;;20.67;19.57;;;;;;;;;;5045229;28;20509;-80
2023/04/13 09:30:04;;;;;;;21.70;20.50;;;;;;;;;;5037383;28;20488;-80
2023/04/13 09:32:32;;;;;;;22.23;20.93;;;;;;;;;;5036686;28;20463;-80
2023/04/13 09:35:03;;;;;;;21.60;20.40;;;;;;;;;;5036915;28;20522;-80
2023/04/13 09:37:31;;;;;;;22.30;20.90;;;;;;;;;;5039984;28;20419;-80
2023/04/13 09:40:09;;;;;;;21.50;20.40;;;;;;;;;;5041014;28;20479;-80
2023/04/13 09:42:36;;;;;;;20.70;19.70;;;;;;;;;;5035392;28;20467;-81
2023/04/13 09:45:03;;;;;;;20.80;19.60;;;;;;;;;;5039012;28;20509;-80
2023/04/13 09:47:39;;;;;;;21.00;19.90;;;;;;;;;;5045445;28;20509;-80
2023/04/13 09:50:16;;;;;;;20.50;19.40;;;;;;;;;;5037498;28;20913;-80
2023/04/13 09:52:44;;;;;;;20.57;19.40;;;;;;;;;;5037379;28;20451;-78
2023/04/13 09:55:15;;;;;;;21.10;19.90;;;;;;;;;;5032924;28;20829;-79
2023/04/13 09:57:42;;;;;;;21.10;20.00;;;;;;;;;;5034665;28;20443;-79
2023/04/13 10:00:14;;;;;;;20.73;19.73;;;;;;;;;;5038346;28;20495;-80
2023/04/13 10:02:43;;;;;;;21.37;20.23;;;;;;;;;;5036378;28;21169;-79
2023/04/13 10:05:11;;;;;;;21.07;20.03;;;;;;;;;;5032867;28;20868;-80
2023/04/13 10:07:38;;;;;;;21.07;20.00;;;;;;;;;;5032747;28;20512;-79
2023/04/13 10:10:06;;;;;;;20.70;19.60;;;;;;;;;;5033126;28;20476;-79
2023/04/13 10:12:35;;;;;;;21.50;20.30;;;;;;;;;;5033485;28;20434;-79
2023/04/13 10:15:06;;;;;;;20.07;19.07;;;;;;;;;;5033030;28;20876;-79
2023/04/13 10:17:43;;;;;;;21.10;19.90;;;;;;;;;;5032900;28;20526;-79
2023/04/13 10:20:12;;;;;;;20.97;19.97;;;;;;;;;;5032714;28;21041;-79
2023/04/13 10:22:41;;;;;;;20.13;19.13;;;;;;;;;;5036117;28;20426;-79
2023/04/13 10:25:12;;;;;;;21.97;20.57;;;;;;;;;;5036438;28;20895;-79
2023/04/13 10:27:40;;;;;;;21.80;20.50;;;;;;;;;;5036897;28;20439;-78
2023/04/13 10:30:13;;;;;;;21.63;20.43;;;;;;;;;;5035800;28;20495;-79
2023/04/13 10:32:41;;;;;;;21.83;20.67;;;;;;;;;;5033600;28;20422;-81
2023/04/13 10:35:14;;;;;;;21.27;20.07;;;;;;;;;;5033408;28;20459;-79
2023/04/13 10:37:44;;;;;;;21.90;20.40;;;;;;;;;;5032901;28;20781;-78
2023/04/13 10:40:13;;;;;;;21.73;20.63;;;;;;;;;;5032455;28;20604;-78
2023/04/13 10:42:45;;;;;;;21.17;20.03;;;;;;;;;;5033534;28;20418;-79
2023/04/13 10:45:19;;;;;;;20.70;19.60;;;;;;;;;;5033514;28;20439;-78
2023/04/13 10:47:46;;;;;;;21.07;19.87;;;;;;;;;;5033094;28;20430;-79
2023/04/13 10:50:18;;;;;;;20.73;19.53;;;;;;;;;;5033345;28;20462;-78
2023/04/13 10:52:58;;;;;;;20.70;19.60;;;;;;;;;;5033622;28;20816;-77
2023/04/13 10:55:26;;;;;;;21.50;20.13;;;;;;;;;;5033159;28;20433;-78
2023/04/13 10:57:53;;;;;;;21.40;20.20;;;;;;;;;;5033327;28;20487;-79
2023/04/13 11:00:21;;;;;;;21.40;20.00;;;;;;;;;;5033536;28;20978;-79
2023/04/13 11:02:50;;;;;;;20.87;19.70;;;;;;;;;;5036191;28;20794;-79
2023/04/13 11:05:19;;;;;;;21.40;20.20;;;;;;;;;;5037389;28;20509;-79
2023/04/13 11:07:47;;;;;;;21.03;19.67;;;;;;;;;;5036271;28;20789;-78
2023/04/13 11:10:15;;;;;;;21.00;19.90;;;;;;;;;;5037659;28;20518;-78
2023/04/13 11:12:50;;;;;;;21.53;20.23;;;;;;;;;;5038884;28;20451;-78
2023/04/13 11:15:19;;;;;;;20.80;19.70;;;;;;;;;;5037238;28;20409;-79
2023/04/13 11:17:51;;;;;;;19.90;18.90;;;;;;;;;;5036498;28;20432;-78
2023/04/13 11:20:19;;;;;;;21.17;19.90;;;;;;;;;;5037138;28;20507;-80
2023/04/13 11:22:46;;;;;;;19.80;18.80;;;;;;;;;;5036972;28;20458;-78
2023/04/13 11:25:14;;;;;;;21.90;20.70;;;;;;;;;;5036571;28;20460;-79
2023/04/13 11:27:41;;;;;;;20.30;19.20;;;;;;;;;;5036402;28;20430;-78
2023/04/13 11:30:09;;;;;;;21.33;20.23;;;;;;;;;;5018568;28;20495;-78
2023/04/13 11:32:37;;;;;;;20.87;19.67;;;;;;;;;;5036149;28;20903;-78
2023/04/13 11:35:08;;;;;;;21.30;20.07;;;;;;;;;;5036216;28;20902;-78
2023/04/13 11:37:39;;;;;;;21.23;20.03;;;;;;;;;;5036022;28;20446;-78
2023/04/13 11:40:13;;;;;;;21.93;20.63;;;;;;;;;;5035735;28;20442;-78
2023/04/13 11:42:41;;;;;;;20.53;19.43;;;;;;;;;;5036643;28;20497;-85
2023/04/13 11:45:09;;;;;;;22.57;20.73;;;;;;;;;;5036877;28;20422;-78
2023/04/13 11:47:37;;;;;;;20.67;19.57;;;;;;;;;;5035440;28;20430;-79
2023/04/13 11:50:04;;;;;;;21.70;20.50;;;;;;;;;;5036247;28;20467;-78
2023/04/13 11:52:32;;;;;;;22.70;21.30;;;;;;;;;;5036584;28;20431;-78
2023/04/13 11:55:02;;;;;;;22.07;20.57;;;;;;;;;;5036717;28;20453;-78
2023/04/13 11:57:29;;;;;;;22.30;20.57;;;;;;;;;;5035942;28;20415;-86
2023/04/13 11:59:56;;;;;;;22.00;20.80;;;;;;;;;;5017530;28;20555;-86
2023/04/13 12:02:27;;;;;;;22.10;20.60;;;;;;;;;;5016370;28;20784;-86
2023/04/13 12:04:54;;;;;;;21.93;20.73;;;;;;;;;;5016879;28;20485;-87
2023/04/13 12:07:21;;;;;;;21.40;20.13;;;;;;;;;;5017298;28;20439;-87
2023/04/13 12:09:49;;;;;;;23.43;22.00;;;;;;;;;;5016494;28;20459;-88
2023/04/13 12:12:19;;;;;;;21.30;20.20;;;;;;;;;;5016044;28;20457;-86
2023/04/13 12:14:53;;;;;;;20.90;19.80;;;;;;;;;;5015176;28;20427;-85
2023/04/13 12:17:20;;;;;;;22.63;21.13;;;;;;;;;;5015755;28;20490;-84
2023/04/13 12:19:49;;;;;;;20.97;19.67;;;;;;;;;;5021390;28;20492;-84
2023/04/13 12:22:16;;;;;;;23.53;22.23;;;;;;;;;;5035760;28;20438;-85
2023/04/13 12:24:43;;;;;;;23.20;21.90;;;;;;;;;;5036387;28;20451;-85
2023/04/13 12:27:10;;;;;;;22.87;21.67;;;;;;;;;;5035845;28;20427;-87
2023/04/13 12:29:39;;;;;;;22.40;21.00;;;;;;;;;;5036572;28;20533;-86
2023/04/13 12:32:12;;;;;;;22.60;21.40;;;;;;;;;;5036191;28;20541;-86
2023/04/13 12:34:39;;;;;;;23.13;21.30;;;;;;;;;;5035364;28;20453;-80
2023/04/13 12:37:07;;;;;;;23.10;21.80;;;;;;;;;;5035853;28;20476;-80
2023/04/13 12:39:34;;;;;;;23.40;22.00;;;;;;;;;;5035957;28;20449;-80
2023/04/13 12:42:01;;;;;;;22.83;21.53;;;;;;;;;;5035566;28;20907;-80
2023/04/13 12:44:28;;;;;;;22.57;21.27;;;;;;;;;;5035312;28;20442;-79
2023/04/13 12:46:56;;;;;;;22.93;21.20;;;;;;;;;;5035315;28;20869;-80
2023/04/13 12:49:23;;;;;;;21.40;20.20;;;;;;;;;;5036985;28;20446;-79
2023/04/13 12:51:50;;;;;;;22.50;21.10;;;;;;;;;;5034517;28;20465;-80
2023/04/13 12:54:17;;;;;;;21.37;20.17;;;;;;;;;;5034820;28;20469;-80
2023/04/13 12:56:44;;;;;;;23.23;21.40;;;;;;;;;;5034386;28;20422;-80
2023/04/13 12:59:12;;;;;;;23.00;21.50;;;;;;;;;;5034973;28;20826;-80
2023/04/13 13:01:39;;;;;;;21.87;20.57;;;;;;;;;;5035026;28;20441;-80
2023/04/13 13:04:07;;;;;;;22.77;21.27;;;;;;;;;;5036527;28;20430;-80
2023/04/13 13:06:34;;;;;;;22.07;20.87;;;;;;;;;;5015276;28;20423;-79
2023/04/13 13:09:01;;;;;;;21.70;20.50;;;;;;;;;;5015744;28;20473;-80
2023/04/13 13:11:28;;;;;;;22.90;21.50;;;;;;;;;;5016522;28;20462;-80
2023/04/13 13:13:55;;;;;;;21.67;20.37;;;;;;;;;;5015271;28;20814;-79
2023/04/13 13:16:22;;;;;;;20.43;19.33;;;;;;;;;;5014999;28;20439;-79
2023/04/13 13:18:49;;;;;;;22.97;21.30;;;;;;;;;;5016296;28;20497;-79
2023/04/13 13:21:18;;;;;;;22.57;21.13;;;;;;;;;;5017553;28;20469;-79
2023/04/13 13:23:45;;;;;;;22.60;21.17;;;;;;;;;;5015723;28;20520;-79
2023/04/13 13:26:12;;;;;;;22.90;21.60;;;;;;;;;;5014830;28;20437;-79
2023/04/13 13:28:39;;;;;;;26.40;24.07;;;;;;;;;;5015096;28;20476;-80
2023/04/13 13:31:06;;;;;;;22.87;21.47;;;;;;;;;;5015872;28;20454;-79
2023/04/13 13:33:33;;;;;;;22.97;21.67;;;;;;;;;;5015982;28;20459;-79
2023/04/13 13:36:01;;;;;;;23.47;22.10;;;;;;;;;;5015605;28;20427;-79
2023/04/13 13:38:29;;;;;;;23.70;21.97;;;;;;;;;;5015600;28;21273;-79
2023/04/13 13:40:56;;;;;;;21.10;20.00;;;;;;;;;;5016123;28;20423;-80
2023/04/13 13:43:23;;;;;;;22.50;21.20;;;;;;;;;;5015026;28;20457;-79
2023/04/13 13:45:52;;;;;;;21.67;20.47;;;;;;;;;;5015331;28;20474;-79
2023/04/13 13:48:20;;;;;;;23.77;21.93;;;;;;;;;;5014964;28;20472;-80
2023/04/13 13:50:47;;;;;;;22.50;21.20;;;;;;;;;;5015707;28;20449;-80
2023/04/13 13:53:14;;;;;;;22.77;21.47;;;;;;;;;;5014915;28;20465;-80
2023/04/13 13:55:42;;;;;;;22.67;21.23;;;;;;;;;;5015044;28;20518;-80
2023/04/13 13:58:10;;;;;;;22.90;21.40;;;;;;;;;;5015278;28;20452;-80
2023/04/13 14:00:37;;;;;;;23.20;21.80;;;;;;;;;;5015121;28;20800;-79
2023/04/13 14:03:04;;;;;;;22.00;20.80;;;;;;;;;;5014934;28;20470;-80
2023/04/13 14:05:31;;;;;;;22.70;21.40;;;;;;;;;;5014975;28;20461;-79
2023/04/13 14:07:58;;;;;;;23.57;22.13;;;;;;;;;;5015279;28;20448;-79
2023/04/13 14:10:25;;;;;;;23.73;22.10;;;;;;;;;;5015515;28;20453;-79
2023/04/13 14:12:55;;;;;;;22.93;21.07;;;;;;;;;;5015399;28;20575;-79
2023/04/13 14:15:22;;;;;;;23.03;21.53;;;;;;;;;;5014446;28;20470;-80
2023/04/13 14:17:49;;;;;;;23.30;21.80;;;;;;;;;;5015492;28;20453;-80
2023/04/13 14:20:16;;;;;;;23.97;22.37;;;;;;;;;;5015224;28;20465;-79